createdAt,value
2022-08-28T00:03:17.670Z,98503.25
2022-08-28T00:08:21.143Z,98509.88
2022-08-28T00:13:26.021Z,98509.03
2022-08-28T00:18:31.396Z,98505.97
2022-08-28T00:23:42.970Z,98513.91
2022-08-28T00:28:46.000Z,98515.94
2022-08-28T00:33:50.830Z,98514.28
2022-08-28T00:38:53.563Z,98520.69
2022-08-28T00:44:08.405Z,98529.44
2022-08-28T00:49:14.591Z,98522.19
2022-08-28T00:54:19.143Z,98524.22
2022-08-28T00:59:25.501Z,98528.47
2022-08-28T01:04:32.314Z,98524.78
2022-08-28T01:09:39.527Z,98523.91
2022-08-28T01:14:45.708Z,98538.59
2022-08-28T01:19:57.072Z,98526.47
2022-08-28T01:25:03.414Z,98532.22
2022-08-28T01:30:06.933Z,98544.03
2022-08-28T01:35:14.728Z,98543.38
2022-08-28T01:40:23.880Z,98535.28
2022-08-28T01:45:27.148Z,98534.97
2022-08-28T01:50:33.498Z,98526.06
2022-08-28T01:55:37.921Z,98537.06
2022-08-28T02:00:41.219Z,98539.59
2022-08-28T02:05:45.980Z,98538.41
2022-08-28T02:10:50.198Z,98541.78
2022-08-28T02:15:52.965Z,98541.94
2022-08-28T02:20:55.855Z,98539.44
2022-08-28T02:26:00.087Z,98533.84
2022-08-28T02:31:02.979Z,98536.38
2022-08-28T02:36:06.263Z,98537.06
2022-08-28T02:41:10.746Z,98535.53
2022-08-28T02:46:14.144Z,98534.50
2022-08-28T02:51:16.949Z,98531.66
2022-08-28T02:56:21.060Z,98546.81
2022-08-28T03:01:23.933Z,98535.84
2022-08-28T03:06:26.707Z,98534.16
2022-08-28T03:11:30.786Z,98535.47
2022-08-28T03:16:34.168Z,98542.09
2022-08-28T03:21:37.014Z,98543.09
2022-08-28T03:26:41.162Z,98543.59
2022-08-28T03:31:43.961Z,98543.78
2022-08-28T03:36:46.711Z,98538.38
2022-08-28T03:41:51.439Z,98538.38
2022-08-28T03:46:54.244Z,98540.41
2022-08-28T03:51:56.975Z,98540.75
2022-08-28T03:57:01.139Z,98535.53
2022-08-28T04:02:03.926Z,98538.22
2022-08-28T04:07:07.021Z,98538.22
2022-08-28T04:12:11.681Z,98537.56
2022-08-28T04:17:14.543Z,98540.97
2022-08-28T04:22:17.443Z,98539.44
2022-08-28T04:27:22.560Z,98544.38
2022-08-28T04:32:25.366Z,98548.25
2022-08-28T04:37:28.133Z,98543.03
2022-08-28T04:42:32.406Z,98554.19
2022-08-28T04:47:36.834Z,98552.66
2022-08-28T04:52:39.890Z,98558.56
2022-08-28T04:57:44.014Z,98561.44
2022-08-28T05:02:46.745Z,98575.75
2022-08-28T05:07:49.530Z,98576.94
2022-08-28T05:12:53.639Z,98591.06
2022-08-28T05:17:56.394Z,98600.03
2022-08-28T05:22:59.111Z,98601.88
2022-08-28T05:28:03.592Z,98600.16
2022-08-28T05:33:06.824Z,98604.34
2022-08-28T05:38:10.334Z,98604.97
2022-08-28T05:43:16.377Z,98610.53
2022-08-28T05:48:19.334Z,98611.31
2022-08-28T05:53:22.086Z,98626.28
2022-08-28T05:58:33.439Z,98622.19
2022-08-28T06:03:37.422Z,98633.25
2022-08-28T06:08:58.769Z,98630.06
2022-08-28T06:14:06.463Z,98629.09
2022-08-28T06:19:10.379Z,98633.69
2022-08-28T06:24:13.410Z,98636.94
2022-08-28T06:29:18.379Z,98630.06
2022-08-28T06:34:24.387Z,98626.06
2022-08-28T06:39:27.263Z,98629.75
2022-08-28T06:44:32.249Z,98643.41
2022-08-28T06:49:35.622Z,98641.16
2022-08-28T06:54:38.349Z,98649.28
2022-08-28T06:59:44.719Z,98646.78
2022-08-28T07:04:47.424Z,98642.41
2022-08-28T07:09:50.320Z,98647.66
2022-08-28T07:14:54.439Z,98648.31
2022-08-28T07:19:57.307Z,98654.38
2022-08-28T07:25:00.219Z,98658.84
2022-08-28T07:30:06.319Z,98654.19
2022-08-28T07:35:10.641Z,98651.91
2022-08-28T07:40:13.986Z,98647.31
2022-08-28T07:45:18.347Z,98649.25
2022-08-28T07:50:21.302Z,98650.09
2022-08-28T07:55:24.133Z,98653.41
2022-08-28T08:00:28.211Z,98659.94
2022-08-28T08:05:30.887Z,98662.19
2022-08-28T08:10:34.211Z,98674.63
2022-08-28T08:15:38.527Z,98669.19
2022-08-28T08:20:41.281Z,98674.94
2022-08-28T08:25:44.004Z,98681.19
2022-08-28T08:30:48.140Z,98685.09
2022-08-28T08:35:51.078Z,98685.50
2022-08-28T08:40:53.987Z,98682.78
2022-08-28T08:45:58.474Z,98688.25
2022-08-28T08:51:06.277Z,98676.84
2022-08-28T08:56:13.176Z,98672.19
2022-08-28T09:01:22.857Z,98682.91
2022-08-28T09:06:32.152Z,98678.88
2022-08-28T09:11:51.029Z,98683.09
2022-08-28T09:17:01.946Z,98683.31
2022-08-28T09:22:05.055Z,98690.59
2022-08-28T09:27:15.611Z,98695.69
2022-08-28T09:32:25.389Z,98691.72
2022-08-28T09:37:32.077Z,98688.44
2022-08-28T09:42:52.237Z,98694.38
2022-08-28T09:47:58.204Z,98692.50
2022-08-28T09:53:16.551Z,98685.25
2022-08-28T09:58:19.932Z,98699.97
2022-08-28T10:03:29.287Z,98685.69
2022-08-28T10:08:50.982Z,98686.31
2022-08-28T10:14:03.575Z,98689.59
2022-08-28T10:19:16.227Z,98691.00
2022-08-28T10:24:33.245Z,98691.28
2022-08-28T10:29:49.549Z,98681.09
2022-08-28T10:35:04.297Z,98675.94
2022-08-28T10:40:14.627Z,98672.81
2022-08-28T10:45:21.823Z,98678.16
2022-08-28T10:50:29.953Z,98680.72
2022-08-28T10:55:38.806Z,98675.53
2022-08-28T11:00:44.120Z,98677.44
2022-08-28T11:05:54.321Z,98678.72
2022-08-28T11:10:58.687Z,98677.78
2022-08-28T11:16:11.733Z,98677.84
2022-08-28T11:21:22.493Z,98671.28
2022-08-28T11:26:33.905Z,98677.06
2022-08-28T11:31:41.617Z,98678.56
2022-08-28T11:37:01.290Z,98678.88
2022-08-28T11:42:38.168Z,98669.38
2022-08-28T11:47:58.888Z,98676.63
2022-08-28T11:53:31.512Z,98680.66
2022-08-28T11:58:43.953Z,98674.84
2022-08-28T12:03:57.102Z,98679.44
2022-08-28T12:09:05.525Z,98684.59
2022-08-28T12:14:09.731Z,98689.16
2022-08-28T12:19:28.747Z,98672.75
2022-08-28T12:24:36.568Z,98688.09
2022-08-28T12:29:47.129Z,98678.56
2022-08-28T12:35:04.371Z,98672.03
2022-08-28T12:40:16.655Z,98672.88
2022-08-28T12:45:24.514Z,98679.47
2022-08-28T12:50:32.185Z,98662.44
2022-08-28T12:55:38.492Z,98666.75
2022-08-28T13:00:53.476Z,98668.44
2022-08-28T13:06:00.153Z,98672.16
2022-08-28T13:11:04.570Z,98656.34
2022-08-28T13:16:09.467Z,98657.44
2022-08-28T13:21:33.993Z,98646.03
2022-08-28T13:26:38.944Z,98646.56
2022-08-28T13:31:42.587Z,98639.50
2022-08-28T13:36:48.332Z,98644.00
2022-08-28T13:41:55.885Z,98634.06
2022-08-28T13:47:00.680Z,98632.56
2022-08-28T13:52:06.710Z,98624.41
2022-08-28T13:57:11.285Z,98626.03
2022-08-28T14:02:33.269Z,98626.91
2022-08-28T14:07:36.902Z,98614.66
2022-08-28T14:12:43.091Z,98605.75
2022-08-28T14:17:46.086Z,98609.50
2022-08-28T14:22:48.818Z,98608.78
2022-08-28T14:27:53.133Z,98607.19
2022-08-28T14:32:55.835Z,98605.97
2022-08-28T14:37:58.534Z,98599.25
2022-08-28T14:43:02.647Z,98615.66
2022-08-28T14:48:05.419Z,98609.06
2022-08-28T14:53:09.685Z,98613.19
2022-08-28T14:58:14.114Z,98614.50
2022-08-28T15:03:18.459Z,98608.75
2022-08-28T15:08:21.160Z,98612.38
2022-08-28T15:13:25.833Z,98609.59
2022-08-28T15:18:34.354Z,98620.31
2022-08-28T15:23:37.031Z,98629.03
2022-08-28T15:28:42.021Z,98639.75
2022-08-28T15:33:45.553Z,98639.69
2022-08-28T15:39:06.152Z,98632.44
2022-08-28T15:44:14.876Z,98638.38
2022-08-28T15:49:19.631Z,98641.84
2022-08-28T15:54:23.731Z,98624.28
2022-08-28T15:59:47.878Z,98614.28
2022-08-28T16:04:51.412Z,98617.78
2022-08-28T16:09:54.465Z,98631.75
2022-08-28T16:14:58.652Z,98624.59
2022-08-28T16:20:01.466Z,98619.06
2022-08-28T16:25:04.543Z,98609.16
2022-08-28T16:30:15.688Z,98611.38
2022-08-28T16:35:19.086Z,98611.31
2022-08-28T16:40:22.042Z,98615.25
2022-08-28T16:45:26.500Z,98611.84
2022-08-28T16:50:32.287Z,98622.31
2022-08-28T16:55:35.577Z,98610.31
2022-08-28T17:00:44.527Z,98600.09
2022-08-28T17:05:57.553Z,98619.00
2022-08-28T17:11:01.326Z,98620.34
2022-08-28T17:16:05.931Z,98615.53
2022-08-28T17:21:26.634Z,98614.66
2022-08-28T17:26:29.410Z,98616.63
2022-08-28T17:31:33.657Z,98621.56
2022-08-28T17:36:37.785Z,98617.34
2022-08-28T17:41:40.729Z,98629.50
2022-08-28T17:46:44.976Z,98629.84
2022-08-28T17:51:47.790Z,98631.03
2022-08-28T17:56:51.446Z,98633.34
2022-08-28T18:01:55.840Z,98631.50
2022-08-28T18:06:58.866Z,98631.88
2022-08-28T18:12:02.012Z,98642.91
2022-08-28T18:17:06.221Z,98640.09
2022-08-28T18:22:13.481Z,98645.88
2022-08-28T18:27:16.396Z,98651.41
2022-08-28T18:32:20.821Z,98659.81
2022-08-28T18:37:23.545Z,98669.69
2022-08-28T18:42:26.459Z,98674.59
2022-08-28T18:47:30.575Z,98683.38
2022-08-28T18:52:33.589Z,98684.09
2022-08-28T18:57:36.345Z,98693.66
2022-08-28T19:02:41.806Z,98705.66
2022-08-28T19:07:45.753Z,98696.72
2022-08-28T19:12:48.559Z,98706.34
2022-08-28T19:17:54.639Z,98721.16
2022-08-28T19:22:58.338Z,98721.16
2022-08-28T19:28:02.397Z,98729.31
2022-08-28T19:33:06.770Z,98736.38
2022-08-28T19:38:09.993Z,98737.53
2022-08-28T19:43:16.601Z,98747.50
2022-08-28T19:48:21.415Z,98753.16
2022-08-28T19:53:24.179Z,98757.63
2022-08-28T19:58:27.334Z,98746.69
2022-08-28T20:03:31.760Z,98764.84
2022-08-28T20:08:36.179Z,98768.84
2022-08-28T20:13:39.986Z,98776.53
2022-08-28T20:18:44.455Z,98785.38
2022-08-28T20:23:47.842Z,98789.00
2022-08-28T20:28:52.545Z,98785.19
2022-08-28T20:33:56.683Z,98790.66
2022-08-28T20:38:59.992Z,98784.63
2022-08-28T20:44:04.960Z,98791.44
2022-08-28T20:49:09.292Z,98793.00
2022-08-28T20:54:12.709Z,98802.44
2022-08-28T20:59:15.590Z,98795.56
2022-08-28T21:04:19.979Z,98795.75
2022-08-28T21:09:23.541Z,98797.75
2022-08-28T21:14:51.411Z,98811.22
2022-08-28T21:19:55.950Z,98816.78
2022-08-28T21:24:59.147Z,98818.41
2022-08-28T21:30:02.659Z,98818.38
2022-08-28T21:35:09.256Z,98817.00
2022-08-28T21:40:15.426Z,98819.91
2022-08-28T21:45:18.329Z,98821.28
2022-08-28T21:50:22.422Z,98830.63
2022-08-28T21:55:25.287Z,98831.06
2022-08-28T22:00:28.119Z,98839.75
2022-08-28T22:05:32.333Z,98844.03
2022-08-28T22:10:38.602Z,98849.34
2022-08-28T22:15:46.037Z,98852.31
2022-08-28T22:21:07.909Z,98851.72
2022-08-28T22:26:13.395Z,98852.81
2022-08-28T22:31:16.255Z,98861.19
2022-08-28T22:36:22.703Z,98859.97
2022-08-28T22:41:25.642Z,98864.56
2022-08-28T22:46:29.176Z,98864.00
2022-08-28T22:51:34.724Z,98865.69
2022-08-28T22:56:37.527Z,98860.91
2022-08-28T23:01:42.346Z,98863.13
2022-08-28T23:06:46.439Z,98868.53
2022-08-28T23:11:49.427Z,98862.53
2022-08-28T23:16:54.869Z,98857.09
2022-08-28T23:21:59.747Z,98861.09
2022-08-28T23:27:19.419Z,98851.25
2022-08-28T23:32:25.471Z,98855.09
2022-08-28T23:37:29.588Z,98844.63
2022-08-28T23:42:34.096Z,98845.69
2022-08-28T23:47:40.356Z,98849.09
2022-08-28T23:52:46.672Z,98846.69
2022-08-28T23:57:52.162Z,98843.03
